Jurupa, California
Current Conditions -  °F | °C
As of 12:53 AM on Sunday 23 Nov 2014 (Local Time) from KRAL Reporting Station
Few Clouds Few Clouds  
Wind Chill: 54°   Ceiling: Unl
Heat Index: 54°   Visibility: 9mi
Dew Point: 51°   Wind: 0mph
Humidity: 90%   Direction: NA
Pressure: 30.04"   Gusts: NA
Location:  34.0033°N, 117.446°W
Report Text: KRAL 230853Z AUTO 00000KT 9SM FEW015 12/11 A3004 RMK AO2 SLP162 T01220106 58001
Loading
Personal Weather Stations






























Interactive Weather Map New forecast layout! Learn more

10-Day Weather Forecast

Advertisements
Track Severe Weather on mobile